Historyczne dane pomiarowe

Dodano dane terminowe – wersja testowa.

Dane z okresu 1951-2019

Wersja bazy: 1.34 [2019-03-16, lista zmian], aktualizacja planowana na 2019-04-15

Dane meteo z obszaru Polski uzyskane na podstawie danych udostępnionych przez Instytut Meteorologii i Gospodarki Wodnej – Państwowy Instytut Badawczy.

 

Wybierz Datę:    

       

TemperaturaWilgotnośćWiatrCiśnienieOpadyŚniegCzas trwania zjawisk
 Stacja t tx tn tng RH VA  wxwx mslp ppp RRR   cm mm wxwxwxwxwxwxwx
1983-08-14 14.3 19.8 7.0- 72.3- 2.0----- 0.0------------
1983-08-13 15.1 20.6 12.0- 87.5- 4.7----- 2.9------------
1983-08-12 20.0 27.4 13.0- 66.0- 2.3----- 12.5------------
1983-08-11 21.3 29.7 13.3- 67.8- 1.7----- 0.0------------
1983-08-10 21.3 28.7 13.2- 68.5- 0.7----- 0.0------------
1983-08-09 21.5 29.5 14.7- 71.3- 2.7----- 0.0------------
1983-08-08 21.1 28.4 16.5- 76.3- 5.0----- 0.0------------
1983-08-07 19.5 26.5 12.3- 75.5- 3.3----- 0.0------------
1983-08-06 17.7 23.3 12.5- 70.3- 4.0----- 0.0------------
1983-08-05 15.1 20.0 11.7- 73.3- 6.0----- 0.0------------
1983-08-04 15.2 18.8 13.2- 93.8- 6.0----- 3.7------------
1983-08-03 17.3 22.0 15.5- 96.8- 6.0----- 13.0------------
1983-08-02 22.5 29.3 17.5- 57.0- 5.3----- 4.1------------
1983-08-01 22.3 32.9 13.4- 53.5- 0.0----- 0.0------------
1983-07-31 18.9 26.4 9.5- 59.0- 0.3----- 0.0------------
1983-07-30 18.1 22.2 15.5- 71.3- 4.3----- 0.0------------
1983-07-29 20.0 26.3 13.2- 65.5- 4.3----- 0.8------------
1983-07-28 24.0 30.3 18.9- 56.8- 3.7----- 0.0------------
1983-07-27 24.8 33.9 13.5- 55.8- 2.3----- 0.0------------
1983-07-26 22.4 31.2 12.0- 63.8- 1.0----- 0.0------------
1983-07-25 18.2 26.0 8.8- 72.3- 3.7----- 0.0------------
1983-07-24 17.5 21.7 14.9- 80.5- 4.7----- 1.1------------
1983-07-23 18.9 23.3 13.3- 64.8- 4.3----- 0.0------------
1983-07-22 16.4 22.3 9.0- 63.0- 5.3----- 0.1------------
1983-07-21 14.7 19.8 9.0- 65.3- 3.3----- 0.0------------
1983-07-20 14.5 22.7 11.5- 78.0- 4.3----- 5.8------------
1983-07-19 22.3 31.0 19.0- 69.8- 5.3----- 0.0------------
1983-07-18 24.2 33.3 13.9- 55.3- 3.3----- 0.0------------
1983-07-17 19.5 25.2 10.5- 62.0- 1.3----- 0.0------------
1983-07-16 20.8 27.0 15.7- 66.5- 5.7----- 10.0------------
1983-07-15 19.8 28.9 8.9- 53.3- 2.0----- 0.0------------
1983-07-14 20.9 25.6 17.7- 65.8- 3.3 4.3---- 0.0------------
1983-07-13 22.3 31.0 15.0- 69.5- 4.3 1.3---- 6.5------------
1983-07-12 24.6 31.4 17.9- 52.0- 4.7 4.7---- 0.0------------
1983-07-11 23.5 33.0 14.9- 59.3- 5.3 2.7---- 0.0------------
1983-07-10 24.0 32.6 13.2- 52.3- 3.0 4.3---- 0.0------------
1983-07-09 22.7 30.4 12.5- 59.3- 1.0 2.3---- 0.0------------
1983-07-08 20.9 28.9 11.2- 59.3- 0.0 2.7---- 0.0------------
1983-07-07 22.7 29.6 14.2- 49.8- 0.0 2.3---- 0.0------------
1983-07-06 22.9 30.4 12.9- 58.0- 0.7 2.0---- 0.0------------
1983-07-05 19.9 27.5 10.0- 63.0- 1.0 1.7---- 0.0------------
1983-07-04 21.2 28.0 13.2- 56.5- 3.0 3.0---- 0.0------------
1983-07-03 20.3 26.6 9.0- 61.3- 4.3 1.3---- 0.0------------
1983-07-02 19.7 24.9 13.4- 63.0- 3.0 2.0---- 0.0------------
1983-07-01 21.9 28.7 13.9- 62.3- 3.3 2.0---- 0.0------------
1983-06-30 20.2 26.0 8.2- 55.5- 4.0 2.7---- 0.0------------
1983-06-29 15.1 20.5 7.9- 63.5- 5.3 3.3---- 0.0------------
1983-06-28 16.8 20.2 13.5- 68.8- 3.7 4.0---- 0.0------------
1983-06-27 18.5 25.4 13.0- 76.8- 5.3 2.3---- 5.1------------
1983-06-26 20.1 26.5 9.9- 43.0- 1.0 3.0---- 0.0------------
1983-06-25 21.0 30.0 10.9- 61.3- 3.7 1.7---- 0.0------------
1983-06-24 20.2 29.5 7.9- 50.3- 0.0 1.3---- 0.0------------
1983-06-23 16.7 24.2 4.8- 53.8- 0.0 1.3---- 0.0------------
1983-06-22 15.2 21.5 6.4- 56.0- 0.0 2.7---- 0.0------------
1983-06-21 18.6 26.5 10.6- 63.3- 0.0 3.0---- 0.0------------
1983-06-20 19.0 26.9 9.0- 59.0- 0.0 2.7---- 0.0------------
1983-06-19 17.6 22.4 12.2- 71.8- 3.3 3.7---- 0.0------------
1983-06-18 13.9 18.6 11.7- 82.5- 6.0 2.7---- 0.0------------
1983-06-17 14.9 20.0 7.9- 70.3- 4.7 2.0---- 0.0------------
1983-06-16 14.4 19.1 9.6- 71.0- 4.0 1.7---- 0.0------------
270.8 ms

 

Źródłem pochodzenia danych jest Instytut Meteorologii i Gospodarki Wodnej – Państwowy Instytut Badawczy. Dane Instytutu Meteorologii i Gospodarki Wodnej – Państwowego Instytutu Badawczego zostały przetworzone.

Dane źródłowe można odnaleźć na stronie https://dane.imgw.pl